Time;durP1;ratioP1;P1;durP2;ratioP2;P2;SDS_P1;SDS_P2;PMS_P1;PMS_P2;Temp;Humidity;BMP_temperature;BMP_pressure;BME280_temperature;BME280_humidity;BME280_pressure;Samples;Min_cycle;Max_cycle;Signal;HPM_P1;HPM_P2
2023/08/20 00:02:09;;;;;;;18.63;10.30;;;17.70;99.90;;;;;;5114498;28;20180;-52
2023/08/20 00:04:36;;;;;;;22.87;11.40;;;17.60;99.90;;;;;;5114558;28;20185;-52
2023/08/20 00:07:03;;;;;;;22.27;11.03;;;17.60;99.90;;;;;;5114136;28;20808;-51
2023/08/20 00:09:30;;;;;;;22.03;11.53;;;17.50;99.90;;;;;;5116116;28;20891;-51
2023/08/20 00:11:55;;;;;;;19.33;10.40;;;17.50;99.90;;;;;;5118222;28;20415;-51
2023/08/20 00:15:06;;;;;;;26.37;12.40;;;17.50;99.90;;;;;;5118550;28;20469;-51
2023/08/20 00:17:36;;;;;;;23.47;12.77;;;17.40;99.90;;;;;;5118126;28;20203;-52
2023/08/20 00:20:10;;;;;;;31.70;13.40;;;17.40;99.90;;;;;;5118442;28;20407;-51
2023/08/20 00:22:36;;;;;;;21.33;12.23;;;17.40;99.90;;;;;;5118201;28;20491;-52
2023/08/20 00:25:03;;;;;;;26.00;11.40;;;17.40;99.90;;;;;;5118300;28;20419;-52
2023/08/20 00:27:29;;;;;;;23.57;12.67;;;17.40;99.90;;;;;;5118490;28;20421;-50
2023/08/20 00:29:55;;;;;;;23.83;12.87;;;17.40;99.90;;;;;;5117982;28;20423;-52
2023/08/20 00:32:20;;;;;;;25.13;13.53;;;17.30;99.90;;;;;;5117748;28;20600;-51
2023/08/20 00:34:46;;;;;;;23.90;11.87;;;17.30;99.90;;;;;;5118211;28;20280;-51
2023/08/20 00:37:12;;;;;;;30.80;11.37;;;17.30;99.90;;;;;;5117789;28;20178;-51
2023/08/20 00:39:38;;;;;;;27.53;12.03;;;17.20;99.90;;;;;;5117888;28;20189;-51
2023/08/20 00:42:04;;;;;;;19.47;11.63;;;17.20;99.90;;;;;;5117669;28;20588;-50
2023/08/20 00:44:30;;;;;;;29.20;13.00;;;17.10;99.90;;;;;;5117703;28;20299;-51
2023/08/20 00:46:56;;;;;;;22.70;12.40;;;17.10;99.90;;;;;;5117405;28;20922;-50
2023/08/20 00:49:22;;;;;;;23.80;12.90;;;17.10;99.90;;;;;;5117717;28;20442;-51
2023/08/20 00:51:49;;;;;;;26.57;13.63;;;17.00;99.90;;;;;;5117675;28;20778;-52
2023/08/20 00:54:14;;;;;;;21.50;12.07;;;16.90;99.90;;;;;;5117198;28;20447;-51
2023/08/20 00:56:40;;;;;;;28.00;12.40;;;16.90;99.90;;;;;;5117538;28;20842;-51
2023/08/20 00:59:06;;;;;;;28.30;13.90;;;16.90;99.90;;;;;;5117454;28;20181;-50
2023/08/20 01:01:31;;;;;;;27.73;12.67;;;16.80;99.90;;;;;;5117633;28;20646;-51
2023/08/20 01:03:57;;;;;;;36.70;14.90;;;16.80;99.90;;;;;;5117619;28;20513;-49
2023/08/20 01:06:28;;;;;;;31.17;14.53;;;16.80;99.90;;;;;;5117243;28;20173;-51
2023/08/20 01:09:13;;;;;;;24.83;14.03;;;16.80;99.90;;;;;;5116763;28;20186;-51
2023/08/20 01:11:46;;;;;;;34.03;13.63;;;16.80;99.90;;;;;;5116941;28;20403;-51
2023/08/20 01:14:16;;;;;;;29.03;13.17;;;16.70;99.90;;;;;;5116834;28;20461;-51
2023/08/20 01:16:42;;;;;;;27.73;13.60;;;16.70;99.90;;;;;;5117120;28;20414;-51
2023/08/20 01:19:17;;;;;;;32.00;12.50;;;16.70;99.90;;;;;;5116685;28;20406;-51
2023/08/20 01:22:15;;;;;;;35.53;13.67;;;16.70;99.90;;;;;;5115470;28;20716;-50
2023/08/20 01:25:05;;;;;;;33.67;13.60;;;16.60;99.90;;;;;;5082104;28;20944;-50
2023/08/20 01:27:52;;;;;;;23.70;13.37;;;16.50;99.90;;;;;;5116903;28;20403;-50
2023/08/20 01:30:20;;;;;;;27.70;15.10;;;16.50;99.90;;;;;;5116877;28;20421;-50
2023/08/20 01:32:47;;;;;;;25.07;13.77;;;16.50;99.90;;;;;;5116715;28;20549;-52
2023/08/20 01:35:15;;;;;;;31.33;13.93;;;16.50;99.90;;;;;;5116430;28;20411;-51
2023/08/20 01:37:41;;;;;;;33.20;15.17;;;16.50;99.90;;;;;;5116739;28;20425;-50
2023/08/20 01:40:10;;;;;;;25.57;14.10;;;16.50;99.90;;;;;;5116952;28;20428;-51
2023/08/20 01:42:40;;;;;;;30.60;13.77;;;16.40;99.90;;;;;;5116984;28;20280;-50
2023/08/20 01:45:06;;;;;;;33.33;15.80;;;16.40;99.90;;;;;;5116705;28;20450;-51
2023/08/20 01:47:32;;;;;;;37.77;14.70;;;16.40;99.90;;;;;;5116342;28;20426;-51
2023/08/20 01:49:58;;;;;;;34.83;16.00;;;16.40;99.90;;;;;;5116143;28;20947;-51
2023/08/20 01:52:24;;;;;;;29.83;13.10;;;16.40;99.90;;;;;;5116003;28;20452;-49
2023/08/20 01:54:50;;;;;;;35.77;15.50;;;16.40;99.90;;;;;;5116496;28;20180;-50
2023/08/20 01:57:15;;;;;;;25.90;14.93;;;16.40;99.90;;;;;;5116466;28;20425;-50
2023/08/20 01:59:41;;;;;;;31.57;15.87;;;16.40;99.90;;;;;;5116239;28;20182;-51
2023/08/20 02:02:07;;;;;;;42.77;17.40;;;16.30;99.90;;;;;;5116141;28;20177;-50
2023/08/20 02:04:33;;;;;;;39.23;16.70;;;16.30;99.90;;;;;;5116507;28;20218;-49
2023/08/20 02:06:59;;;;;;;41.80;18.17;;;16.30;99.90;;;;;;5115717;28;20267;-50
2023/08/20 02:09:24;;;;;;;39.27;15.50;;;16.20;99.90;;;;;;5115995;28;20501;-50
2023/08/20 02:11:51;;;;;;;28.67;14.33;;;16.20;99.90;;;;;;5116040;28;20815;-50
2023/08/20 02:14:16;;;;;;;38.77;14.70;;;16.20;99.90;;;;;;5115693;28;20618;-50
2023/08/20 02:16:42;;;;;;;24.17;13.20;;;16.20;99.90;;;;;;5115822;28;20509;-49
2023/08/20 02:19:08;;;;;;;31.90;14.00;;;16.10;99.90;;;;;;5115683;28;20621;-49
2023/08/20 02:21:34;;;;;;;40.80;16.47;;;16.10;99.90;;;;;;5115275;28;20233;-48
2023/08/20 02:23:59;;;;;;;35.50;18.20;;;16.10;99.90;;;;;;5115504;28;20190;-49
2023/08/20 02:26:25;;;;;;;39.97;17.53;;;16.10;99.90;;;;;;5115765;28;20178;-50
2023/08/20 02:28:50;;;;;;;35.17;16.20;;;16.10;99.90;;;;;;5115401;28;20182;-49
2023/08/20 02:31:16;;;;;;;44.33;18.23;;;16.20;99.90;;;;;;5115561;28;20204;-50
2023/08/20 02:33:41;;;;;;;45.40;19.87;;;16.30;99.90;;;;;;5114998;28;20205;-49
2023/08/20 02:36:07;;;;;;;37.53;19.97;;;16.30;99.90;;;;;;5115508;28;20246;-50
2023/08/20 02:38:33;;;;;;;46.90;20.30;;;16.40;99.90;;;;;;5115808;28;20179;-49
2023/08/20 02:40:58;;;;;;;45.97;21.43;;;16.40;99.90;;;;;;5115770;28;20243;-49
2023/08/20 02:43:24;;;;;;;44.83;19.57;;;16.40;99.90;;;;;;5115635;28;20682;-49
2023/08/20 02:45:49;;;;;;;54.67;20.40;;;16.40;99.90;;;;;;5115115;28;20216;-50
2023/08/20 02:48:16;;;;;;;76.90;21.17;;;16.30;99.90;;;;;;5114984;28;20188;-50
2023/08/20 02:50:41;;;;;;;38.90;20.13;;;16.30;99.90;;;;;;5114892;28;20176;-49
2023/08/20 02:53:07;;;;;;;65.30;19.43;;;16.30;99.90;;;;;;5114925;28;20504;-49
2023/08/20 02:55:33;;;;;;;107.37;22.70;;;16.30;99.90;;;;;;5114806;28;20271;-48
2023/08/20 02:57:59;;;;;;;36.33;19.10;;;16.20;99.90;;;;;;5115148;28;20181;-49
2023/08/20 03:00:25;;;;;;;72.53;22.63;;;16.20;99.90;;;;;;5115306;28;20414;-48
2023/08/20 03:02:50;;;;;;;40.90;20.03;;;16.20;99.90;;;;;;5115447;28;20624;-49
2023/08/20 03:05:16;;;;;;;30.93;18.07;;;16.20;99.90;;;;;;5114637;28;20176;-50
2023/08/20 03:07:41;;;;;;;63.50;21.43;;;16.20;99.90;;;;;;5115382;28;20249;-50
2023/08/20 03:10:07;;;;;;;38.60;19.33;;;16.20;99.90;;;;;;5114964;28;20624;-49
2023/08/20 03:12:33;;;;;;;38.43;18.83;;;16.20;99.90;;;;;;5114809;28;20347;-49
2023/08/20 03:14:59;;;;;;;40.67;18.07;;;16.20;99.90;;;;;;5114786;28;20188;-47
2023/08/20 03:17:25;;;;;;;39.53;17.77;;;16.20;99.90;;;;;;5114697;28;20652;-49
2023/08/20 03:20:00;;;;;;;46.57;18.50;;;16.20;99.90;;;;;;5115075;28;20410;-50
2023/08/20 03:22:26;;;;;;;36.47;18.80;;;16.20;99.90;;;;;;5114365;28;20526;-48
2023/08/20 03:24:53;;;;;;;33.30;17.60;;;16.30;99.90;;;;;;5114704;28;20425;-48
2023/08/20 03:27:19;;;;;;;33.03;16.70;;;16.20;99.90;;;;;;5114829;28;20421;-48
2023/08/20 03:29:45;;;;;;;33.43;17.30;;;16.20;99.90;;;;;;5114260;28;20832;-48
2023/08/20 03:32:11;;;;;;;43.60;19.47;;;16.20;99.90;;;;;;5114315;28;20941;-49
2023/08/20 03:34:37;;;;;;;32.93;16.10;;;16.20;99.90;;;;;;5114238;28;20409;-48
2023/08/20 03:37:03;;;;;;;60.37;20.07;;;16.20;99.90;;;;;;5114486;28;20418;-47
2023/08/20 03:39:29;;;;;;;47.77;19.10;;;16.20;99.90;;;;;;5114806;28;20177;-49
2023/08/20 03:41:55;;;;;;;49.90;18.50;;;16.20;99.90;;;;;;5114455;28;20793;-48
2023/08/20 03:44:21;;;;;;;35.97;18.10;;;16.20;99.90;;;;;;5113414;28;20177;-48
2023/08/20 03:46:46;;;;;;;95.13;21.30;;;16.30;99.90;;;;;;5114044;28;20652;-48
2023/08/20 03:49:12;;;;;;;31.77;16.13;;;16.30;99.90;;;;;;5114300;28;20409;-49
2023/08/20 03:51:37;;;;;;;68.77;18.20;;;16.40;99.90;;;;;;5114058;28;20541;-49
2023/08/20 03:54:03;;;;;;;58.03;18.43;;;16.40;99.90;;;;;;5114003;28;20256;-47
2023/08/20 03:56:29;;;;;;;40.70;19.80;;;16.50;99.90;;;;;;5114393;28;20194;-48
2023/08/20 03:58:55;;;;;;;161.67;24.97;;;16.40;99.90;;;;;;5114096;28;20246;-48
2023/08/20 04:01:21;;;;;;;106.97;21.90;;;16.50;99.90;;;;;;5114173;28;20216;-49
2023/08/20 04:03:47;;;;;;;69.87;20.33;;;16.60;99.90;;;;;;5114277;28;20443;-48
2023/08/20 04:06:13;;;;;;;218.80;28.23;;;16.60;99.90;;;;;;5114191;28;20425;-48
2023/08/20 04:08:39;;;;;;;97.93;24.90;;;16.60;99.90;;;;;;5114117;28;20962;-47
2023/08/20 04:11:05;;;;;;;186.17;30.10;;;16.70;99.90;;;;;;5114172;28;20520;-48
2023/08/20 04:13:31;;;;;;;147.77;28.80;;;16.70;99.90;;;;;;5114008;28;20223;-48
2023/08/20 04:15:56;;;;;;;107.27;24.30;;;16.70;99.90;;;;;;5113986;28;20427;-49
2023/08/20 04:18:22;;;;;;;78.37;23.30;;;16.70;99.90;;;;;;5113976;28;20181;-47
2023/08/20 04:20:51;;;;;;;79.60;24.13;;;16.80;99.90;;;;;;5114119;28;20175;-48
2023/08/20 04:23:16;;;;;;;103.83;24.10;;;16.70;99.90;;;;;;5113761;28;20239;-48
2023/08/20 04:25:42;;;;;;;96.27;23.47;;;16.70;99.90;;;;;;5114007;28;20464;-48
2023/08/20 04:28:07;;;;;;;58.63;21.90;;;16.70;99.90;;;;;;5114183;28;20212;-48
2023/08/20 04:30:35;;;;;;;88.00;24.40;;;16.70;99.90;;;;;;5113925;28;20630;-48
2023/08/20 04:33:00;;;;;;;78.63;19.83;;;16.70;99.90;;;;;;5113710;28;20224;-49
2023/08/20 04:35:26;;;;;;;114.27;20.23;;;16.70;99.90;;;;;;5113843;28;20416;-47
2023/08/20 04:37:52;;;;;;;53.40;17.73;;;16.70;99.90;;;;;;5114089;28;20208;-48
2023/08/20 04:40:17;;;;;;;87.60;19.50;;;16.70;99.90;;;;;;5114115;28;20617;-46
2023/08/20 04:42:43;;;;;;;134.70;20.23;;;16.60;99.90;;;;;;5113883;28;20227;-50
2023/08/20 04:45:10;;;;;;;113.30;17.53;;;16.70;99.90;;;;;;5114035;28;20190;-49
2023/08/20 04:47:37;;;;;;;87.50;19.10;;;16.70;99.90;;;;;;5113674;28;20964;-48
2023/08/20 04:50:03;;;;;;;105.03;19.50;;;16.60;99.90;;;;;;5113542;28;20902;-48
2023/08/20 04:52:28;;;;;;;39.53;16.07;;;16.60;99.90;;;;;;5095169;28;20466;-49
2023/08/20 04:54:54;;;;;;;98.83;16.50;;;16.70;99.90;;;;;;5114362;28;20510;-48
2023/08/20 04:57:19;;;;;;;32.30;13.20;;;16.70;99.90;;;;;;5117045;28;20293;-49
2023/08/20 04:59:45;;;;;;;144.37;17.03;;;16.70;99.90;;;;;;5117453;28;20182;-47
2023/08/20 05:02:14;;;;;;;90.93;13.33;;;16.70;99.90;;;;;;5117502;28;20177;-48
2023/08/20 05:04:40;;;;;;;59.80;14.03;;;16.70;99.90;;;;;;5117066;28;20647;-48
2023/08/20 05:07:05;;;;;;;51.93;13.80;;;16.70;99.90;;;;;;5116938;28;20410;-47
2023/08/20 05:09:31;;;;;;;53.57;12.87;;;16.80;99.90;;;;;;5116932;28;20415;-48
2023/08/20 05:11:57;;;;;;;159.97;17.17;;;16.90;99.90;;;;;;5116853;28;20222;-49
2023/08/20 05:14:22;;;;;;;41.40;12.47;;;17.00;99.90;;;;;;5117094;28;20242;-48
2023/08/20 05:16:48;;;;;;;87.03;15.97;;;17.00;99.90;;;;;;5117260;28;20188;-48
2023/08/20 05:19:13;;;;;;;37.63;12.93;;;17.00;99.90;;;;;;5117140;28;20496;-49
2023/08/20 05:21:39;;;;;;;64.27;15.80;;;17.10;99.90;;;;;;5116569;28;20229;-48
2023/08/20 05:24:05;;;;;;;61.67;16.87;;;17.10;99.90;;;;;;5116890;28;20188;-48
2023/08/20 05:26:30;;;;;;;57.20;17.10;;;17.30;99.90;;;;;;5116883;28;20223;-48
2023/08/20 05:28:57;;;;;;;38.20;15.43;;;17.20;99.90;;;;;;5116945;28;20588;-48
2023/08/20 05:31:23;;;;;;;45.60;14.97;;;17.30;99.90;;;;;;5116809;28;20432;-48
2023/08/20 05:33:48;;;;;;;36.97;14.80;;;17.40;99.90;;;;;;5117036;28;20595;-49
2023/08/20 05:36:14;;;;;;;26.43;15.10;;;17.40;99.90;;;;;;5116936;28;20173;-48
2023/08/20 05:38:42;;;;;;;20.30;13.70;;;17.50;99.90;;;;;;5116772;28;20181;-49
2023/08/20 05:41:08;;;;;;;59.80;14.93;;;17.50;99.90;;;;;;5116811;28;20182;-50
2023/08/20 05:43:33;;;;;;;25.10;13.43;;;17.60;99.90;;;;;;5116994;28;20443;-49
2023/08/20 05:45:59;;;;;;;71.03;14.50;;;17.60;99.90;;;;;;5116679;28;20183;-48
2023/08/20 05:48:24;;;;;;;73.73;14.40;;;17.60;99.90;;;;;;5116487;28;20180;-49
2023/08/20 05:50:50;;;;;;;81.47;14.27;;;17.60;99.90;;;;;;5116818;28;20213;-50
2023/08/20 05:53:15;;;;;;;20.87;11.60;;;17.60;99.90;;;;;;5116293;28;20546;-48
2023/08/20 05:55:41;;;;;;;45.30;13.80;;;17.60;99.90;;;;;;5116448;28;20254;-49
2023/08/20 05:58:07;;;;;;;50.70;14.90;;;17.60;99.90;;;;;;5116889;28;20177;-49
2023/08/20 06:00:32;;;;;;;17.00;13.40;;;17.60;99.90;;;;;;5116645;28;20188;-49
2023/08/20 06:02:58;;;;;;;31.50;14.23;;;17.60;99.90;;;;;;5116136;28;20188;-50
2023/08/20 06:05:23;;;;;;;33.30;14.70;;;17.60;99.90;;;;;;5115830;28;20173;-53
2023/08/20 06:07:49;;;;;;;25.20;15.20;;;17.70;99.90;;;;;;5115223;28;20177;-50
2023/08/20 06:10:15;;;;;;;30.90;16.07;;;17.80;99.90;;;;;;5116086;28;20187;-52
2023/08/20 06:12:41;;;;;;;31.50;16.80;;;17.90;99.90;;;;;;5115962;28;20205;-49
2023/08/20 06:15:07;;;;;;;39.83;17.10;;;17.90;99.90;;;;;;5115626;28;20429;-51
2023/08/20 06:17:33;;;;;;;35.10;17.70;;;18.00;99.90;;;;;;5115514;28;20188;-50
2023/08/20 06:19:58;;;;;;;26.13;17.60;;;18.10;99.90;;;;;;5116001;28;20436;-50
2023/08/20 06:22:24;;;;;;;34.20;19.37;;;18.30;99.90;;;;;;5115453;28;20235;-50
2023/08/20 06:24:49;;;;;;;40.97;22.97;;;18.40;99.90;;;;;;5115749;28;20190;-50
2023/08/20 06:27:15;;;;;;;35.00;22.10;;;18.70;99.90;;;;;;5115524;28;20179;-51
2023/08/20 06:29:40;;;;;;;39.57;23.83;;;19.00;99.90;;;;;;5115487;28;20182;-52
2023/08/20 06:32:06;;;;;;;33.37;21.70;;;19.40;99.90;;;;;;5115390;28;20180;-52
2023/08/20 06:34:34;;;;;;;36.90;21.57;;;19.50;99.90;;;;;;5115485;28;20219;-52
2023/08/20 06:36:59;;;;;;;27.67;20.20;;;19.60;99.90;;;;;;5115246;28;20200;-52
2023/08/20 06:39:25;;;;;;;36.70;22.43;;;19.70;99.90;;;;;;5115262;28;20417;-53
2023/08/20 06:41:50;;;;;;;35.07;21.80;;;19.80;99.90;;;;;;5115687;28;20188;-52
2023/08/20 06:44:16;;;;;;;30.83;20.70;;;20.00;99.90;;;;;;5115572;28;20611;-54
2023/08/20 06:46:41;;;;;;;30.70;18.00;;;20.20;99.90;;;;;;5115751;28;20203;-53
2023/08/20 06:49:07;;;;;;;28.53;18.10;;;20.40;44.60;;;;;;5115348;28;20183;-54
2023/08/20 06:51:32;;;;;;;30.43;18.43;;;20.60;13.20;;;;;;5115072;28;20237;-54
2023/08/20 06:53:58;;;;;;;29.60;17.20;;;20.80;1.00;;;;;;5115200;28;20672;-54
2023/08/20 06:56:23;;;;;;;28.00;16.00;;;21.00;1.00;;;;;;5114977;28;20293;-54
2023/08/20 06:58:50;;;;;;;30.23;15.63;;;21.10;1.00;;;;;;5115547;28;20180;-54
2023/08/20 07:01:16;;;;;;;28.30;15.20;;;21.30;99.90;;;;;;5115295;28;20216;-54
2023/08/20 07:03:43;;;;;;;16.20;12.50;;;21.30;1.00;;;;;;5114796;28;20426;-54
2023/08/20 07:06:09;;;;;;;19.10;11.83;;;21.00;99.90;;;;;;5115124;28;20184;-54
2023/08/20 07:08:36;;;;;;;15.13;10.70;;;20.70;1.00;;;;;;5115274;28;20417;-54
2023/08/20 07:11:02;;;;;;;15.90;10.70;;;20.70;99.90;;;;;;5114953;28;20445;-54
2023/08/20 07:13:28;;;;;;;17.53;10.83;;;20.90;91.90;;;;;;5114734;28;20854;-55
2023/08/20 07:15:54;;;;;;;11.63;8.33;;;21.00;45.80;;;;;;5114614;28;20415;-54
2023/08/20 07:18:20;;;;;;;10.07;8.67;;;21.30;99.90;;;;;;5114217;28;20195;-55
2023/08/20 07:20:45;;;;;;;12.20;10.87;;;21.40;1.00;;;;;;5114720;28;20406;-54
2023/08/20 07:23:11;;;;;;;12.50;9.70;;;21.30;1.00;;;;;;5114884;28;20236;-54
2023/08/20 07:25:41;;;;;;;15.53;10.67;;;21.10;99.90;;;;;;5114747;28;20249;-54
2023/08/20 07:28:08;;;;;;;13.30;10.37;;;20.90;1.00;;;;;;5114733;28;20274;-54
2023/08/20 07:30:34;;;;;;;17.47;12.77;;;20.70;4.90;;;;;;5114575;28;20426;-54
2023/08/20 07:33:00;;;;;;;14.20;11.23;;;20.80;1.00;;;;;;5114199;28;20909;-56
2023/08/20 07:35:26;;;;;;;16.53;11.50;;;21.10;1.00;;;;;;5114510;28;20423;-54
2023/08/20 07:37:51;;;;;;;18.43;11.87;;;21.70;99.90;;;;;;5114110;28;20471;-54
2023/08/20 07:40:17;;;;;;;14.17;10.67;;;22.20;1.00;;;;;;5114455;28;20241;-54
2023/08/20 07:42:43;;;;;;;17.20;9.40;;;22.50;99.90;;;;;;5114741;28;20189;-54
2023/08/20 07:45:09;;;;;;;11.03;8.73;;;22.80;99.90;;;;;;5114177;28;20179;-55
2023/08/20 07:47:39;;;;;;;13.20;9.57;;;23.00;99.90;;;;;;5114410;28;20231;-54
2023/08/20 07:50:05;;;;;;;14.40;8.90;;;23.10;49.40;;;;;;5114294;28;20411;-55
2023/08/20 07:52:31;;;;;;;10.60;7.47;;;23.40;42.50;;;;;;5113535;28;20474;-55
2023/08/20 07:54:57;;;;;;;13.33;7.50;;;23.40;1.00;;;;;;5114125;28;20414;-54
2023/08/20 07:57:23;;;;;;;12.63;7.53;;;23.30;1.00;;;;;;5095796;28;20418;-54
2023/08/20 07:59:52;;;;;;;10.00;6.93;;;23.20;1.00;;;;;;5114611;28;20173;-55
2023/08/20 08:02:18;;;;;;;15.90;7.53;;;23.30;1.00;;;;;;5095975;28;20177;-54
2023/08/20 08:04:44;;;;;;;14.67;6.70;;;23.70;9.40;;;;;;5096058;28;20415;-54
2023/08/20 08:07:12;;;;;;;7.67;5.40;;;24.20;1.00;;;;;;5113993;28;20403;-55
2023/08/20 08:09:38;;;;;;;9.27;5.20;;;24.60;1.00;;;;;;5114011;28;20242;-55
2023/08/20 08:12:04;;;;;;;8.90;6.00;;;24.90;1.00;;;;;;5113832;28;20418;-53
2023/08/20 08:14:30;;;;;;;9.83;6.00;;;25.00;1.00;;;;;;5113763;28;20213;-54
2023/08/20 08:16:56;;;;;;;8.03;5.53;;;25.20;1.00;;;;;;5114156;28;20417;-55
2023/08/20 08:19:21;;;;;;;6.73;5.80;;;25.40;1.00;;;;;;5114171;28;20177;-52
2023/08/20 08:21:47;;;;;;;10.43;6.20;;;25.70;1.00;;;;;;5113464;28;20282;-53
2023/08/20 08:24:13;;;;;;;8.27;5.27;;;25.80;1.00;;;;;;5113944;28;20185;-53
2023/08/20 08:26:39;;;;;;;10.33;4.80;;;25.90;1.00;;;;;;5113918;28;20173;-53
2023/08/20 08:29:06;;;;;;;11.00;5.37;;;26.00;1.00;;;;;;5113666;28;20502;-53
2023/08/20 08:31:31;;;;;;;8.20;4.60;;;26.10;1.00;;;;;;5117318;28;20185;-53
2023/08/20 08:33:57;;;;;;;8.07;4.13;;;26.20;1.00;;;;;;5118014;28;20452;-52
2023/08/20 08:36:26;;;;;;;6.07;3.87;;;26.20;1.00;;;;;;5118174;28;20531;-52
2023/08/20 08:38:52;;;;;;;6.77;3.63;;;26.20;1.00;;;;;;5118443;28;20267;-52
2023/08/20 08:41:21;;;;;;;6.87;4.10;;;26.30;1.00;;;;;;5118047;28;20410;-53
2023/08/20 08:43:48;;;;;;;7.37;4.00;;;26.10;1.00;;;;;;5118120;28;20414;-53
2023/08/20 08:46:14;;;;;;;7.77;3.73;;;26.30;1.00;;;;;;5117602;28;20442;-53
2023/08/20 08:48:42;;;;;;;7.17;3.50;;;26.60;1.00;;;;;;5118006;28;20403;-53
2023/08/20 08:51:08;;;;;;;7.93;3.70;;;26.60;1.00;;;;;;5117374;28;20410;-53
2023/08/20 08:53:34;;;;;;;10.87;3.83;;;26.70;1.00;;;;;;5117493;28;20456;-53
2023/08/20 08:56:00;;;;;;;5.20;3.27;;;26.70;1.00;;;;;;5117583;28;20191;-53
2023/08/20 08:58:26;;;;;;;10.13;4.30;;;26.80;1.00;;;;;;5117694;28;20411;-53
2023/08/20 09:00:52;;;;;;;7.97;3.20;;;26.90;1.00;;;;;;5117449;28;20188;-53
2023/08/20 09:03:18;;;;;;;6.53;3.80;;;26.80;1.00;;;;;;5117512;28;20219;-53
2023/08/20 09:05:48;;;;;;;5.63;3.10;;;27.10;1.00;;;;;;5115892;28;20442;-53
2023/08/20 09:08:27;;;;;;;6.37;3.17;;;27.20;1.00;;;;;;5098248;28;20177;-53
2023/08/20 09:10:57;;;;;;;5.60;3.03;;;27.30;1.00;;;;;;5116568;28;20403;-54
2023/08/20 09:13:32;;;;;;;5.63;3.20;;;27.50;1.00;;;;;;5116361;28;20454;-54
2023/08/20 09:15:57;;;;;;;6.47;3.63;;;27.50;1.00;;;;;;5116787;28;20398;-54
2023/08/20 09:18:23;;;;;;;9.80;2.70;;;27.70;1.00;;;;;;5116497;28;20809;-54
2023/08/20 09:20:50;;;;;;;7.03;3.20;;;27.70;1.00;;;;;;5117093;28;20201;-54
2023/08/20 09:23:15;;;;;;;6.83;3.50;;;27.80;1.00;;;;;;5117267;28;20236;-54
2023/08/20 09:25:42;;;;;;;9.67;3.43;;;27.80;1.00;;;;;;5117316;28;20429;-54
2023/08/20 09:28:08;;;;;;;8.83;3.37;;;27.70;1.00;;;;;;5116727;28;20608;-54
2023/08/20 09:30:34;;;;;;;6.37;3.30;;;27.70;1.00;;;;;;5116928;28;20438;-54
2023/08/20 09:33:14;;;;;;;7.03;3.20;;;27.50;1.00;;;;;;5116775;28;20211;-54
2023/08/20 09:35:49;;;;;;;13.10;3.30;;;27.40;1.00;;;;;;5116755;28;20184;-54
2023/08/20 09:38:18;;;;;;;11.33;3.60;;;26.80;1.00;;;;;;5116677;28;20414;-55
2023/08/20 09:40:44;;;;;;;6.90;3.43;;;26.50;1.00;;;;;;5116809;28;20407;-54
2023/08/20 09:43:12;;;;;;;10.20;3.40;;;26.70;1.00;;;;;;5115758;28;20411;-55
2023/08/20 09:45:38;;;;;;;8.50;3.50;;;26.50;1.00;;;;;;5116646;28;20181;-54
2023/08/20 09:48:08;;;;;;;6.20;2.97;;;26.40;1.00;;;;;;5116510;28;20419;-56
2023/08/20 09:50:36;;;;;;;7.37;3.27;;;26.30;1.00;;;;;;5116789;28;20423;-56
2023/08/20 09:53:21;;;;;;;14.70;4.10;;;26.50;1.00;;;;;;5116477;28;20458;-55
2023/08/20 09:55:49;;;;;;;13.70;3.93;;;26.20;1.00;;;;;;5116768;28;20730;-56
2023/08/20 09:58:16;;;;;;;8.33;3.63;;;26.00;1.00;;;;;;5116522;28;20429;-56
2023/08/20 10:00:42;;;;;;;8.80;3.90;;;26.10;1.00;;;;;;5116107;28;20467;-55
2023/08/20 10:03:09;;;;;;;7.20;3.40;;;26.10;1.00;;;;;;5116053;28;20423;-55
2023/08/20 10:05:35;;;;;;;22.93;4.00;;;26.00;1.00;;;;;;5116497;28;20765;-54
2023/08/20 10:08:02;;;;;;;6.70;3.90;;;26.10;1.00;;;;;;5116515;28;20498;-54
2023/08/20 10:10:28;;;;;;;6.50;3.40;;;25.90;1.00;;;;;;5115951;28;20902;-54
2023/08/20 10:12:56;;;;;;;10.60;3.47;;;25.80;1.00;;;;;;5116114;28;20961;-54
2023/08/20 10:15:23;;;;;;;10.27;4.00;;;25.70;1.00;;;;;;5116224;28;20756;-54
2023/08/20 10:17:50;;;;;;;12.27;3.53;;;26.00;1.00;;;;;;5116350;28;20425;-54
2023/08/20 10:20:16;;;;;;;8.80;3.30;;;26.30;1.00;;;;;;5116151;28;20431;-55
2023/08/20 10:22:45;;;;;;;11.70;3.10;;;26.60;1.00;;;;;;5115656;28;20954;-54
2023/08/20 10:25:32;;;;;;;10.03;3.50;;;27.20;1.00;;;;;;5115820;28;20501;-55
2023/08/20 10:28:22;;;;;;;7.10;3.07;;;27.70;1.00;;;;;;5114569;28;20443;-54
2023/08/20 10:31:10;;;;;;;5.93;3.27;;;27.70;1.00;;;;;;5115897;28;20403;-54
2023/08/20 10:33:38;;;;;;;7.17;3.20;;;27.60;1.00;;;;;;5115323;28;20864;-54
2023/08/20 10:36:18;;;;;;;13.10;3.50;;;27.90;1.00;;;;;;5115679;28;20423;-54
2023/08/20 10:38:47;;;;;;;6.80;2.90;;;28.80;1.00;;;;;;5115679;28;20398;-55
2023/08/20 10:41:13;;;;;;;6.03;3.00;;;29.30;1.00;;;;;;5115528;28;20442;-55
2023/08/20 10:43:40;;;;;;;9.47;2.97;;;29.90;1.00;;;;;;5115463;28;20450;-52
2023/08/20 10:46:06;;;;;;;10.70;3.10;;;29.70;1.00;;;;;;5115382;28;20267;-53
2023/08/20 10:48:34;;;;;;;6.40;2.47;;;29.60;1.00;;;;;;5115252;28;20509;-53
2023/08/20 10:51:09;;;;;;;14.53;3.23;;;29.80;1.00;;;;;;5115396;28;20267;-54
2023/08/20 10:53:35;;;;;;;10.20;3.07;;;29.80;1.00;;;;;;5114887;28;20449;-53
2023/08/20 10:56:17;;;;;;;7.57;2.80;;;30.30;1.00;;;;;;5114868;28;20479;-54
2023/08/20 10:58:45;;;;;;;7.77;2.93;;;30.80;1.00;;;;;;5115452;28;20558;-55
2023/08/20 11:01:20;;;;;;;5.90;3.20;;;31.00;1.00;;;;;;5115168;28;20462;-55
2023/08/20 11:03:50;;;;;;;6.70;3.00;;;30.40;1.00;;;;;;5115414;28;20735;-55
2023/08/20 11:06:17;;;;;;;8.93;3.13;;;30.10;1.00;;;;;;5114990;28;20466;-55
2023/08/20 11:08:44;;;;;;;7.57;2.70;;;29.90;1.00;;;;;;5114899;28;20505;-54
2023/08/20 11:11:11;;;;;;;6.17;2.90;;;29.70;1.00;;;;;;5115056;28;20410;-54
2023/08/20 11:13:36;;;;;;;6.10;2.73;;;29.50;1.00;;;;;;5115020;28;20820;-54
2023/08/20 11:16:03;;;;;;;9.27;2.77;;;29.90;1.00;;;;;;5114516;28;20423;-55
2023/08/20 11:18:33;;;;;;;8.20;3.10;;;30.30;1.00;;;;;;5115008;28;20173;-54
2023/08/20 11:20:59;;;;;;;9.30;2.90;;;30.40;1.00;;;;;;5115207;28;20438;-53
2023/08/20 11:23:25;;;;;;;5.23;2.50;;;31.20;1.00;;;;;;5115007;28;20406;-54
2023/08/20 11:25:51;;;;;;;10.07;2.90;;;31.80;1.00;;;;;;5114578;28;20410;-54
2023/08/20 11:28:16;;;;;;;12.27;3.13;;;32.20;1.00;;;;;;5114774;28;20561;-55
2023/08/20 11:30:43;;;;;;;8.53;3.10;;;32.10;1.00;;;;;;5114587;28;20181;-55
2023/08/20 11:33:08;;;;;;;7.80;2.80;;;32.10;1.00;;;;;;5114644;28;20258;-54
2023/08/20 11:35:35;;;;;;;5.13;2.50;;;32.00;1.00;;;;;;5114534;28;20419;-55
2023/08/20 11:38:02;;;;;;;6.60;2.37;;;31.50;1.00;;;;;;5114581;28;20261;-55
2023/08/20 11:40:28;;;;;;;5.50;2.60;;;31.30;1.00;;;;;;5114374;28;20427;-55
2023/08/20 11:42:53;;;;;;;5.03;2.60;;;31.40;1.00;;;;;;5114448;28;20421;-54
2023/08/20 11:45:19;;;;;;;5.53;2.20;;;31.40;1.00;;;;;;5114171;28;20648;-55
2023/08/20 11:47:45;;;;;;;5.47;2.33;;;31.60;1.00;;;;;;5114029;28;20181;-55
2023/08/20 11:50:10;;;;;;;6.77;2.73;;;31.90;1.00;;;;;;5114414;28;20184;-54
2023/08/20 11:52:37;;;;;;;7.77;2.90;;;32.10;1.00;;;;;;5114477;28;20202;-54
2023/08/20 11:55:03;;;;;;;3.43;2.50;;;32.10;1.00;;;;;;5113971;28;20188;-55
2023/08/20 11:57:29;;;;;;;5.87;2.67;;;31.80;1.00;;;;;;5114472;28;20753;-55
2023/08/20 11:59:59;;;;;;;7.00;2.70;;;31.90;1.00;;;;;;5114145;28;20411;-54
2023/08/20 12:02:27;;;;;;;6.33;2.80;;;32.40;1.00;;;;;;5114185;28;20415;-56
2023/08/20 12:04:56;;;;;;;6.87;2.93;;;33.00;1.00;;;;;;5114948;28;20464;-55
2023/08/20 12:07:26;;;;;;;7.10;2.50;;;32.40;1.00;;;;;;5118154;28;20414;-54
2023/08/20 12:09:53;;;;;;;6.93;2.97;;;32.10;1.00;;;;;;5118475;28;20402;-54
2023/08/20 12:12:20;;;;;;;6.83;3.03;;;32.50;1.00;;;;;;5118404;28;20413;-56
2023/08/20 12:14:46;;;;;;;7.63;2.70;;;32.80;1.00;;;;;;5117957;28;20482;-57
2023/08/20 12:17:11;;;;;;;13.23;3.27;;;32.90;1.00;;;;;;5117860;28;20479;-55
2023/08/20 12:19:37;;;;;;;7.73;2.60;;;32.90;1.00;;;;;;5118207;28;20181;-55
2023/08/20 12:22:03;;;;;;;8.33;2.60;;;33.10;1.00;;;;;;5117658;28;20279;-55
2023/08/20 12:24:29;;;;;;;6.27;2.50;;;33.60;1.00;;;;;;5117851;28;20184;-57
2023/08/20 12:26:55;;;;;;;7.33;2.60;;;34.00;1.00;;;;;;5118111;28;20486;-56
2023/08/20 12:29:20;;;;;;;7.03;2.80;;;34.00;1.00;;;;;;5118294;28;20184;-57
2023/08/20 12:31:46;;;;;;;6.73;2.43;;;33.80;1.00;;;;;;5118007;28;20260;-56
2023/08/20 12:34:12;;;;;;;5.23;2.60;;;33.50;1.00;;;;;;5117872;28;20624;-56
2023/08/20 12:36:37;;;;;;;2.80;2.03;;;33.50;1.00;;;;;;5117731;28;20203;-57
2023/08/20 12:39:04;;;;;;;4.57;2.40;;;33.50;1.00;;;;;;5117772;28;20219;-56